Time;durP1;ratioP1;P1;durP2;ratioP2;P2;SDS_P1;SDS_P2;PMS_P1;PMS_P2;Temp;Humidity;BMP_temperature;BMP_pressure;BME280_temperature;BME280_humidity;BME280_pressure;Samples;Min_cycle;Max_cycle;Signal;HPM_P1;HPM_P2
2023/03/27 00:00:58;;;;;;;0.50;0.50;;;17.80;46.40;;;;;;6082552;23;20149;-85
2023/03/27 00:03:29;;;;;;;0.30;0.30;;;17.90;46.40;;;;;;6035313;23;20631;-85
2023/03/27 00:06:04;;;;;;;0.52;0.40;;;17.80;46.40;;;;;;6011917;23;20157;-85
2023/03/27 00:08:31;;;;;;;0.32;0.32;;;17.90;46.50;;;;;;6107530;23;20133;-84
2023/03/27 00:10:57;;;;;;;0.30;0.30;;;17.90;46.50;;;;;;6083127;23;20145;-84
2023/03/27 00:13:28;;;;;;;0.52;0.35;;;17.90;46.40;;;;;;6106903;23;20133;-84
2023/03/27 00:15:55;;;;;;;0.32;0.30;;;17.90;46.50;;;;;;6058735;23;20596;-84
2023/03/27 00:18:22;;;;;;;0.40;0.32;;;17.80;46.40;;;;;;6083446;23;20168;-84
2023/03/27 00:20:48;;;;;;;0.52;0.35;;;17.90;46.40;;;;;;6083315;23;20220;-84
2023/03/27 00:23:21;;;;;;;0.40;0.30;;;17.90;46.50;;;;;;6083874;23;20172;-84
2023/03/27 00:25:52;;;;;;;0.68;0.38;;;17.80;46.50;;;;;;6036085;23;20148;-84
2023/03/27 00:28:26;;;;;;;0.40;0.30;;;17.90;46.60;;;;;;6058229;23;20529;-85
2023/03/27 00:30:53;;;;;;;0.35;0.35;;;17.90;46.60;;;;;;6035955;23;20601;-85
2023/03/27 00:33:19;;;;;;;0.30;0.30;;;17.80;46.50;;;;;;6083754;23;20160;-85
2023/03/27 00:35:46;;;;;;;0.45;0.30;;;17.90;46.60;;;;;;6083464;23;20145;-85
2023/03/27 00:38:12;;;;;;;0.28;0.22;;;17.80;46.60;;;;;;6083012;23;20200;-85
2023/03/27 00:40:39;;;;;;;0.80;0.50;;;17.80;46.60;;;;;;6082544;23;20144;-85
2023/03/27 00:43:25;;;;;;;0.28;0.28;;;17.80;46.60;;;;;;6083833;23;20176;-85
2023/03/27 00:45:55;;;;;;;1.20;0.40;;;17.80;46.60;;;;;;6083822;23;20145;-85
2023/03/27 00:48:25;;;;;;;0.35;0.30;;;17.80;46.60;;;;;;6083402;23;20140;-85
2023/03/27 00:50:56;;;;;;;0.50;0.50;;;17.80;46.60;;;;;;6034391;23;20346;-85
2023/03/27 00:53:25;;;;;;;0.35;0.30;;;17.70;46.60;;;;;;6010699;23;20149;-85
2023/03/27 00:55:52;;;;;;;0.38;0.38;;;17.80;46.70;;;;;;6082852;23;20153;-85
2023/03/27 00:58:36;;;;;;;0.73;0.35;;;17.90;46.70;;;;;;6082778;23;20180;-85
2023/03/27 01:01:09;;;;;;;0.40;0.40;;;17.80;46.70;;;;;;6035543;23;20169;-85
2023/03/27 01:03:40;;;;;;;0.30;0.30;;;17.80;46.70;;;;;;6034570;23;20211;-85
2023/03/27 01:06:06;;;;;;;0.30;0.30;;;17.80;46.60;;;;;;6035255;23;20153;-85
2023/03/27 01:08:38;;;;;;;0.43;0.28;;;17.80;46.60;;;;;;6082351;23;20153;-85
2023/03/27 01:11:38;;;;;;;0.40;0.40;;;17.80;46.60;;;;;;6011227;23;20556;-85
2023/03/27 01:14:29;;;;;;;0.30;0.30;;;17.70;46.60;;;;;;6106720;23;20593;-85
2023/03/27 01:17:16;;;;;;;0.70;0.30;;;17.80;46.70;;;;;;6064808;23;20144;-85
2023/03/27 01:20:13;;;;;;;0.60;0.50;;;17.80;46.60;;;;;;6106678;23;20181;-85
2023/03/27 01:22:51;;;;;;;0.40;0.40;;;17.80;46.70;;;;;;6083498;23;20141;-85
2023/03/27 01:25:41;;;;;;;0.30;0.30;;;17.80;46.70;;;;;;6108885;23;20168;-85
2023/03/27 01:28:22;;;;;;;0.40;0.38;;;17.80;46.70;;;;;;6106805;23;20145;-85
2023/03/27 01:31:00;;;;;;;0.55;0.35;;;17.80;46.60;;;;;;6106549;23;20136;-85
2023/03/27 01:33:44;;;;;;;0.30;0.30;;;17.80;46.80;;;;;;6106121;23;20140;-85
2023/03/27 01:36:23;;;;;;;0.35;0.35;;;17.80;46.70;;;;;;6107545;23;20223;-84
2023/03/27 01:39:33;;;;;;;0.40;0.30;;;17.80;46.70;;;;;;6059567;23;20188;-85
2023/03/27 01:42:11;;;;;;;0.30;0.30;;;17.80;46.70;;;;;;6091475;23;20137;-84
2023/03/27 01:45:08;;;;;;;0.47;0.40;;;17.80;46.80;;;;;;6037165;23;20149;-84
2023/03/27 01:47:52;;;;;;;0.40;0.40;;;17.80;46.80;;;;;;6106387;23;20156;-85
2023/03/27 01:50:37;;;;;;;0.30;0.30;;;17.80;46.80;;;;;;6011818;23;20209;-84
2023/03/27 01:53:12;;;;;;;0.30;0.30;;;17.80;46.80;;;;;;6060949;23;20152;-84
2023/03/27 01:55:47;;;;;;;0.30;0.30;;;17.80;46.80;;;;;;6036632;23;20155;-84
2023/03/27 01:58:16;;;;;;;0.40;0.30;;;17.70;46.70;;;;;;6058763;23;20180;-84
2023/03/27 02:00:49;;;;;;;0.50;0.40;;;17.80;46.90;;;;;;6107216;23;20133;-84
2023/03/27 02:03:21;;;;;;;0.65;0.40;;;17.80;46.70;;;;;;6084108;23;20144;-84
2023/03/27 02:06:08;;;;;;;0.43;0.40;;;17.80;46.80;;;;;;6083554;23;20141;-85
2023/03/27 02:08:58;;;;;;;0.38;0.38;;;17.70;46.80;;;;;;6106377;23;20145;-85
2023/03/27 02:11:26;;;;;;;0.40;0.40;;;17.70;46.70;;;;;;6063804;23;20179;-85
2023/03/27 02:14:05;;;;;;;0.50;0.40;;;17.70;46.80;;;;;;6082436;23;20542;-85
2023/03/27 02:16:41;;;;;;;0.38;0.32;;;17.70;46.80;;;;;;6011757;23;20247;-84
2023/03/27 02:19:11;;;;;;;0.40;0.40;;;17.80;46.90;;;;;;6036353;23;20191;-85
2023/03/27 02:21:42;;;;;;;0.77;0.40;;;17.70;46.70;;;;;;6106383;23;20129;-84
2023/03/27 02:24:11;;;;;;;0.43;0.40;;;17.70;46.80;;;;;;6010585;23;20160;-85
2023/03/27 02:26:37;;;;;;;0.68;0.40;;;17.70;46.80;;;;;;6034410;23;20589;-85
2023/03/27 02:29:24;;;;;;;0.32;0.32;;;17.80;46.90;;;;;;6082129;23;20155;-85
2023/03/27 02:32:06;;;;;;;0.40;0.40;;;17.70;46.90;;;;;;6082916;23;20133;-85
2023/03/27 02:34:49;;;;;;;0.47;0.40;;;17.70;46.90;;;;;;6061932;23;20149;-86
2023/03/27 02:37:45;;;;;;;0.38;0.38;;;17.70;46.90;;;;;;6106077;23;20144;-85
2023/03/27 02:40:28;;;;;;;0.88;0.40;;;17.70;46.90;;;;;;6109474;23;20149;-84
2023/03/27 02:43:06;;;;;;;0.50;0.45;;;17.70;46.90;;;;;;6106736;23;20161;-85
2023/03/27 02:45:40;;;;;;;0.32;0.32;;;17.70;46.90;;;;;;6035537;23;20536;-85
2023/03/27 02:48:28;;;;;;;0.45;0.32;;;17.60;46.90;;;;;;6082462;23;20561;-85
2023/03/27 02:50:58;;;;;;;0.45;0.38;;;17.70;46.90;;;;;;6106195;23;20228;-85
2023/03/27 02:53:25;;;;;;;0.60;0.40;;;17.70;46.90;;;;;;6082347;23;20181;-84
2023/03/27 02:55:56;;;;;;;0.30;0.30;;;17.70;46.90;;;;;;6082059;23;20159;-85
2023/03/27 02:58:33;;;;;;;0.38;0.38;;;17.70;46.90;;;;;;6034448;23;20224;-85
2023/03/27 03:00:59;;;;;;;0.65;0.30;;;17.70;47.00;;;;;;6082646;23;20148;-85
2023/03/27 03:03:40;;;;;;;0.63;0.40;;;17.70;46.90;;;;;;6106274;23;20133;-84
2023/03/27 03:06:06;;;;;;;0.40;0.40;;;17.70;46.90;;;;;;6106085;23;20129;-84
2023/03/27 03:08:37;;;;;;;0.70;0.50;;;17.60;46.90;;;;;;6105703;23;20145;-85
2023/03/27 03:11:09;;;;;;;0.52;0.50;;;17.70;46.90;;;;;;6034420;23;20160;-84
2023/03/27 03:13:41;;;;;;;0.50;0.30;;;17.70;46.90;;;;;;6034475;23;20160;-84
2023/03/27 03:16:12;;;;;;;0.45;0.40;;;17.70;46.90;;;;;;6057518;23;20152;-84
2023/03/27 03:18:45;;;;;;;0.30;0.30;;;17.70;47.00;;;;;;6057608;23;20191;-84
2023/03/27 03:21:15;;;;;;;0.40;0.40;;;17.60;46.80;;;;;;6034361;23;20611;-84
2023/03/27 03:23:41;;;;;;;0.30;0.30;;;17.70;46.90;;;;;;6057860;23;20596;-85
2023/03/27 03:26:12;;;;;;;0.73;0.32;;;17.60;46.90;;;;;;6083084;23;20524;-85
2023/03/27 03:28:46;;;;;;;0.38;0.38;;;17.70;47.00;;;;;;6058312;23;20152;-84
2023/03/27 03:31:21;;;;;;;1.05;0.63;;;17.70;46.90;;;;;;6035327;23;20211;-84
2023/03/27 03:33:47;;;;;;;0.40;0.40;;;17.70;46.90;;;;;;6033350;23;20152;-84
2023/03/27 03:36:17;;;;;;;0.47;0.40;;;17.70;47.00;;;;;;6082469;23;20125;-84
2023/03/27 03:38:49;;;;;;;0.65;0.40;;;17.70;46.90;;;;;;6010317;23;20212;-84
2023/03/27 03:41:15;;;;;;;0.40;0.38;;;17.70;46.90;;;;;;6009884;23;20163;-84
2023/03/27 03:43:45;;;;;;;0.30;0.30;;;17.70;46.90;;;;;;6106708;23;20188;-84
2023/03/27 03:46:15;;;;;;;0.75;0.30;;;17.70;46.90;;;;;;6033904;23;20156;-84
2023/03/27 03:48:45;;;;;;;0.50;0.40;;;17.70;46.90;;;;;;6057566;23;20164;-84
2023/03/27 03:51:15;;;;;;;0.57;0.40;;;17.70;46.90;;;;;;6047826;23;20649;-84
2023/03/27 03:53:41;;;;;;;0.55;0.40;;;17.70;47.00;;;;;;6024962;23;20613;-84
2023/03/27 03:56:11;;;;;;;0.60;0.40;;;17.70;47.10;;;;;;6050303;23;20126;-84
2023/03/27 03:58:43;;;;;;;1.38;0.40;;;17.70;47.00;;;;;;5999962;23;20200;-84
2023/03/27 04:01:09;;;;;;;0.30;0.30;;;17.70;47.10;;;;;;6023991;23;20158;-85
2023/03/27 04:03:40;;;;;;;0.32;0.32;;;17.70;47.70;;;;;;6025370;23;20157;-85
2023/03/27 04:06:10;;;;;;;0.40;0.40;;;17.60;47.00;;;;;;6025798;23;20154;-85
2023/03/27 04:08:51;;;;;;;0.32;0.25;;;17.50;46.90;;;;;;5999849;23;20547;-84
2023/03/27 04:11:18;;;;;;;0.40;0.40;;;17.60;47.10;;;;;;6000614;23;20153;-85
2023/03/27 04:13:48;;;;;;;0.30;0.30;;;17.70;47.10;;;;;;6049191;23;20141;-85
2023/03/27 04:16:14;;;;;;;0.55;0.40;;;17.60;47.10;;;;;;6000843;23;20237;-85
2023/03/27 04:18:41;;;;;;;0.40;0.40;;;17.60;47.10;;;;;;6025278;23;20209;-84
2023/03/27 04:21:13;;;;;;;0.75;0.40;;;17.60;46.90;;;;;;6024676;23;20154;-85
2023/03/27 04:23:44;;;;;;;0.30;0.30;;;17.60;47.00;;;;;;6049356;23;20126;-84
2023/03/27 04:26:10;;;;;;;0.50;0.40;;;17.70;46.90;;;;;;6024538;23;20686;-85
2023/03/27 04:28:37;;;;;;;1.00;0.40;;;17.60;47.10;;;;;;6025603;23;20153;-85
2023/03/27 04:31:05;;;;;;;0.80;0.30;;;17.70;47.00;;;;;;6049370;23;20134;-85
2023/03/27 04:33:33;;;;;;;0.50;0.47;;;17.70;47.20;;;;;;6025819;23;20151;-85
2023/03/27 04:36:00;;;;;;;0.30;0.30;;;17.60;47.10;;;;;;6026623;23;20143;-84
2023/03/27 04:38:30;;;;;;;0.40;0.40;;;17.60;47.20;;;;;;6025378;23;20516;-85
2023/03/27 04:40:57;;;;;;;0.80;0.40;;;17.60;47.20;;;;;;6001286;23;20214;-85
2023/03/27 04:43:24;;;;;;;0.45;0.40;;;17.60;47.10;;;;;;6051867;23;20134;-85
2023/03/27 04:45:56;;;;;;;1.00;0.40;;;17.70;47.20;;;;;;6027509;23;20139;-85
2023/03/27 04:48:22;;;;;;;0.70;0.50;;;17.60;47.10;;;;;;6026287;23;20186;-85
2023/03/27 04:50:52;;;;;;;0.50;0.38;;;17.60;47.10;;;;;;6098278;23;20215;-85
2023/03/27 04:53:23;;;;;;;0.40;0.40;;;17.60;47.10;;;;;;6084501;23;20153;-84
2023/03/27 04:55:53;;;;;;;0.30;0.30;;;17.60;47.20;;;;;;6085262;23;20209;-84
2023/03/27 04:58:24;;;;;;;0.95;0.60;;;17.60;47.00;;;;;;6032297;23;20280;-84
2023/03/27 05:00:58;;;;;;;0.40;0.40;;;17.60;47.00;;;;;;6009633;23;20275;-84
2023/03/27 05:03:28;;;;;;;0.80;0.60;;;17.70;47.30;;;;;;6010361;23;20153;-84
2023/03/27 05:05:54;;;;;;;0.60;0.40;;;17.70;47.00;;;;;;6009622;23;20150;-84
2023/03/27 05:08:26;;;;;;;0.70;0.50;;;17.60;47.10;;;;;;6032310;23;20161;-84
2023/03/27 05:10:52;;;;;;;0.40;0.40;;;17.60;47.10;;;;;;6009519;23;20165;-84
2023/03/27 05:13:22;;;;;;;0.55;0.32;;;17.60;47.10;;;;;;6035847;23;20149;-85
2023/03/27 05:16:00;;;;;;;0.60;0.50;;;17.70;47.20;;;;;;5966412;23;20212;-85
2023/03/27 05:18:31;;;;;;;1.20;0.40;;;17.70;47.20;;;;;;5990094;23;20663;-85
2023/03/27 05:20:57;;;;;;;0.50;0.40;;;17.60;47.10;;;;;;5989119;23;20160;-86
2023/03/27 05:23:28;;;;;;;0.50;0.50;;;17.70;47.10;;;;;;6030665;23;20153;-86
2023/03/27 05:25:58;;;;;;;0.40;0.40;;;17.70;47.10;;;;;;6005496;23;20233;-86
2023/03/27 05:28:25;;;;;;;0.63;0.30;;;17.70;46.90;;;;;;5987261;23;20181;-86
2023/03/27 05:30:51;;;;;;;2.17;0.60;;;17.60;47.00;;;;;;6061094;23;20168;-87
2023/03/27 05:33:17;;;;;;;0.47;0.47;;;17.70;47.00;;;;;;6060395;23;20174;-86
2023/03/27 05:35:51;;;;;;;0.68;0.50;;;17.70;47.10;;;;;;6061315;23;20145;-86
2023/03/27 05:38:18;;;;;;;0.68;0.40;;;17.70;47.20;;;;;;6012945;23;20189;-86
2023/03/27 05:40:47;;;;;;;0.40;0.40;;;17.70;47.30;;;;;;6060243;23;20660;-87
2023/03/27 05:43:12;;;;;;;0.30;0.30;;;17.60;47.20;;;;;;6059843;23;20164;-87
2023/03/27 05:45:38;;;;;;;0.40;0.40;;;17.70;47.20;;;;;;6084739;23;20141;-85
2023/03/27 05:48:06;;;;;;;0.68;0.40;;;17.70;47.10;;;;;;6107960;23;20160;-85
2023/03/27 05:50:36;;;;;;;0.40;0.40;;;17.60;47.00;;;;;;6082581;23;20271;-85
2023/03/27 05:53:08;;;;;;;0.50;0.40;;;17.70;47.00;;;;;;6035763;23;20153;-86
2023/03/27 05:55:36;;;;;;;0.68;0.40;;;17.70;47.10;;;;;;6038325;23;20157;-84
2023/03/27 05:58:14;;;;;;;0.45;0.40;;;17.70;47.00;;;;;;6035010;23;20261;-84
2023/03/27 06:00:49;;;;;;;0.65;0.43;;;17.80;47.10;;;;;;6038095;23;20243;-85
2023/03/27 06:03:19;;;;;;;0.50;0.40;;;17.70;47.10;;;;;;6013393;23;20190;-85
2023/03/27 06:05:50;;;;;;;0.63;0.40;;;17.70;47.00;;;;;;6010558;23;20172;-86
2023/03/27 06:08:17;;;;;;;1.05;0.30;;;17.70;46.90;;;;;;6008278;23;20160;-87
2023/03/27 06:10:46;;;;;;;0.30;0.30;;;17.80;46.90;;;;;;6032007;23;20159;-85
2023/03/27 06:13:17;;;;;;;1.45;0.47;;;17.70;46.90;;;;;;6051258;23;20493;-84
2023/03/27 06:15:44;;;;;;;1.38;0.35;;;17.80;46.90;;;;;;6028700;23;20148;-84
2023/03/27 06:18:14;;;;;;;0.30;0.30;;;17.80;47.10;;;;;;6027834;23;20221;-86
2023/03/27 06:20:41;;;;;;;1.08;0.60;;;17.80;47.10;;;;;;6030195;23;20243;-84
2023/03/27 06:23:17;;;;;;;0.30;0.30;;;17.90;47.10;;;;;;6081030;23;20198;-85
2023/03/27 06:25:47;;;;;;;0.60;0.30;;;17.70;47.10;;;;;;6037087;23;20163;-85
2023/03/27 06:28:19;;;;;;;0.85;0.50;;;17.80;47.10;;;;;;6057392;23;20219;-86
2023/03/27 06:30:47;;;;;;;0.60;0.50;;;17.80;47.10;;;;;;6082108;23;20183;-86
2023/03/27 06:33:17;;;;;;;0.60;0.60;;;17.70;47.10;;;;;;6107301;23;20581;-86
2023/03/27 06:35:51;;;;;;;2.80;0.60;;;17.80;47.20;;;;;;6035969;23;20153;-85
2023/03/27 06:38:23;;;;;;;2.35;0.45;;;17.70;47.00;;;;;;6108320;23;20172;-85
2023/03/27 06:40:50;;;;;;;2.13;0.65;;;17.80;46.80;;;;;;6085727;23;20165;-85
2023/03/27 06:43:21;;;;;;;3.33;0.50;;;17.90;46.50;;;;;;6109623;23;20129;-85
2023/03/27 06:45:51;;;;;;;4.22;1.00;;;18.00;46.70;;;;;;6084378;23;20141;-86
2023/03/27 06:48:17;;;;;;;3.80;0.70;;;18.00;46.70;;;;;;6056813;23;20268;-85
2023/03/27 06:51:07;;;;;;;;;;;;;;;;;;;;;
2023/03/27 06:53:41;;;;;;;0.43;0.40;;;18.00;46.30;;;;;;5974537;23;20185;-85
2023/03/27 06:56:33;;;;;;;0.35;0.22;;;18.10;46.30;;;;;;5997827;23;20150;-85
2023/03/27 07:02:36;;;;;;;2.40;0.45;;;18.10;46.40;;;;;;6000835;23;20168;-85
2023/03/27 07:05:11;;;;;;;1.75;0.47;;;18.20;46.00;;;;;;5993053;23;20162;-84
2023/03/27 07:07:37;;;;;;;1.45;0.50;;;18.30;46.00;;;;;;5972293;23;20155;-85
2023/03/27 07:10:29;;;;;;;1.52;0.40;;;18.20;46.00;;;;;;5971888;23;20155;-85
2023/03/27 07:13:10;;;;;;;1.90;0.40;;;18.10;46.00;;;;;;5988865;23;20182;-85
2023/03/27 07:15:40;;;;;;;1.00;0.40;;;18.10;46.10;;;;;;5995081;23;20166;-85
2023/03/27 07:18:09;;;;;;;2.22;0.40;;;18.30;46.40;;;;;;5969431;23;20650;-84
2023/03/27 07:20:43;;;;;;;1.63;0.52;;;18.30;46.40;;;;;;5967254;23;20496;-86
2023/03/27 07:23:21;;;;;;;0.73;0.40;;;18.20;46.40;;;;;;5966490;23;20246;-85
2023/03/27 07:25:52;;;;;;;1.55;0.40;;;18.20;46.50;;;;;;5963155;24;20179;-85
2023/03/27 07:28:23;;;;;;;0.77;0.40;;;18.20;46.50;;;;;;5985881;23;20192;-85
2023/03/27 07:30:59;;;;;;;4.65;0.50;;;18.20;46.30;;;;;;5882575;24;20218;-85
2023/03/27 07:33:29;;;;;;;3.00;0.40;;;18.20;46.80;;;;;;5904854;24;20157;-84
2023/03/27 07:35:58;;;;;;;2.22;0.50;;;18.20;47.10;;;;;;5905219;24;20167;-83
2023/03/27 07:38:28;;;;;;;0.30;0.30;;;18.20;47.00;;;;;;6011605;23;20556;-86
2023/03/27 07:40:57;;;;;;;3.75;0.50;;;18.20;46.60;;;;;;6004098;23;20197;-84
2023/03/27 07:43:27;;;;;;;0.82;0.30;;;18.20;46.70;;;;;;6076360;23;20137;-85
2023/03/27 07:46:00;;;;;;;2.40;0.80;;;18.30;46.10;;;;;;6004572;23;20180;-85
2023/03/27 07:48:39;;;;;;;1.17;0.45;;;18.30;46.40;;;;;;6028176;23;20156;-84
2023/03/27 07:51:05;;;;;;;2.05;0.50;;;18.30;46.50;;;;;;6005540;23;20399;-84
2023/03/27 07:53:31;;;;;;;0.40;0.38;;;18.30;46.80;;;;;;6027412;23;20225;-84
2023/03/27 07:56:02;;;;;;;2.47;0.60;;;18.40;46.70;;;;;;6026261;23;20149;-83
2023/03/27 07:58:31;;;;;;;1.63;0.40;;;18.30;46.60;;;;;;6025505;23;20173;-84
2023/03/27 08:01:36;;;;;;;1.83;0.40;;;18.30;47.20;;;;;;6028700;23;20152;-83
2023/03/27 08:04:06;;;;;;;1.38;0.40;;;18.30;47.40;;;;;;6096356;23;20266;-83
2023/03/27 08:07:01;;;;;;;1.65;0.40;;;18.20;47.40;;;;;;6029744;23;20161;-83
2023/03/27 08:09:31;;;;;;;0.55;0.40;;;18.20;47.50;;;;;;6048819;23;20179;-84
2023/03/27 08:11:57;;;;;;;1.88;0.40;;;18.30;47.10;;;;;;6031134;23;20282;-83
2023/03/27 08:14:30;;;;;;;0.95;0.30;;;18.30;47.50;;;;;;6077657;23;20141;-84
2023/03/27 08:16:56;;;;;;;1.30;0.50;;;18.40;47.50;;;;;;6006928;23;20492;-84
2023/03/27 08:19:24;;;;;;;0.55;0.50;;;18.30;47.50;;;;;;6077879;23;20640;-85
2023/03/27 08:21:50;;;;;;;1.38;0.55;;;18.40;47.50;;;;;;6105111;23;20218;-83
2023/03/27 08:24:23;;;;;;;0.52;0.40;;;18.40;47.50;;;;;;6082099;23;20594;-84
2023/03/27 08:27:06;;;;;;;0.85;0.50;;;18.40;47.10;;;;;;6083286;23;20156;-85
2023/03/27 08:29:46;;;;;;;1.83;0.50;;;18.40;46.70;;;;;;5983362;23;20546;-84
2023/03/27 08:32:31;;;;;;;0.65;0.35;;;18.40;47.80;;;;;;6000301;23;20165;-85
2023/03/27 08:35:03;;;;;;;1.45;0.40;;;18.40;47.60;;;;;;6001315;23;20161;-83
2023/03/27 08:37:33;;;;;;;1.02;0.40;;;18.40;47.80;;;;;;5977417;23;20154;-84
2023/03/27 08:40:12;;;;;;;1.60;0.40;;;18.40;48.20;;;;;;5975590;23;20189;-82
2023/03/27 08:42:57;;;;;;;0.68;0.40;;;18.50;47.70;;;;;;6003306;23;20197;-84
2023/03/27 08:45:34;;;;;;;0.85;0.30;;;18.40;47.10;;;;;;6018681;23;20179;-84
2023/03/27 08:48:07;;;;;;;1.50;0.35;;;18.40;46.70;;;;;;5997404;23;20174;-84
2023/03/27 08:50:45;;;;;;;0.45;0.40;;;18.50;46.70;;;;;;5965673;24;20259;-85
2023/03/27 08:53:36;;;;;;;0.77;0.50;;;18.50;47.10;;;;;;5973989;23;20245;-84
2023/03/27 08:56:53;;;;;;;0.85;0.52;;;18.50;46.60;;;;;;6024885;23;20297;-83
2023/03/27 08:59:27;;;;;;;2.13;0.60;;;18.50;47.00;;;;;;6051026;23;20233;-84
2023/03/27 09:02:15;;;;;;;2.20;0.50;;;18.50;46.80;;;;;;6020574;23;20153;-84
2023/03/27 09:05:33;;;;;;;1.55;0.30;;;18.50;46.90;;;;;;6023704;23;20153;-84
2023/03/27 09:08:33;;;;;;;1.45;0.30;;;18.50;46.80;;;;;;6004493;23;20544;-86
2023/03/27 09:11:51;;;;;;;2.50;0.30;;;18.50;47.30;;;;;;5964222;24;20156;-83
2023/03/27 09:14:34;;;;;;;0.95;0.30;;;18.50;47.70;;;;;;5943779;23;20162;-83
2023/03/27 09:17:34;;;;;;;0.80;0.40;;;18.50;47.50;;;;;;5974255;23;20150;-83
2023/03/27 09:20:19;;;;;;;1.40;0.35;;;18.50;47.00;;;;;;5983296;23;20262;-84
2023/03/27 09:23:04;;;;;;;2.15;0.60;;;18.50;47.40;;;;;;5986813;23;20219;-84
2023/03/27 09:26:12;;;;;;;1.67;0.32;;;18.50;47.20;;;;;;5985225;23;20153;-84
2023/03/27 09:29:25;;;;;;;1.00;0.40;;;18.60;47.40;;;;;;5993411;23;20234;-83
2023/03/27 09:31:54;;;;;;;0.82;0.45;;;18.50;48.10;;;;;;5863485;24;20158;-83
2023/03/27 09:35:20;;;;;;;1.52;0.55;;;18.50;47.10;;;;;;5993683;23;20181;-83
2023/03/27 09:37:31;;;;;;;0.52;0.40;;;18.50;47.20;;;;;;6016317;23;20165;-83
2023/03/27 09:40:39;;;;;;;;;;;;;;;;;;;;;
2023/03/27 09:43:26;;;;;;;2.22;0.40;;;18.60;47.40;;;;;;6046294;23;20660;-83
2023/03/27 09:45:58;;;;;;;0.80;0.40;;;18.60;47.40;;;;;;5968380;23;20213;-83
2023/03/27 09:48:45;;;;;;;1.40;0.38;;;18.50;47.50;;;;;;6036009;23;20160;-84
2023/03/27 09:51:42;;;;;;;0.30;0.30;;;18.50;47.30;;;;;;5960946;23;20202;-83
2023/03/27 09:54:18;;;;;;;0.45;0.45;;;18.60;47.90;;;;;;6005306;23;20640;-84
2023/03/27 09:57:19;;;;;;;0.60;0.32;;;18.60;47.40;;;;;;6001892;23;20746;-83
2023/03/27 10:00:00;;;;;;;0.90;0.38;;;18.50;47.00;;;;;;5971864;23;20488;-83
2023/03/27 10:02:33;;;;;;;1.02;0.38;;;18.50;47.30;;;;;;6022100;23;20149;-83
2023/03/27 10:05:10;;;;;;;1.05;0.38;;;18.50;47.20;;;;;;6012992;23;20154;-83
2023/03/27 10:07:43;;;;;;;0.70;0.40;;;18.50;46.70;;;;;;6039079;23;20145;-83
2023/03/27 10:10:16;;;;;;;0.40;0.40;;;18.50;47.10;;;;;;5952737;24;20227;-82
2023/03/27 10:12:42;;;;;;;1.10;0.40;;;18.40;47.90;;;;;;5953914;24;20159;-83
2023/03/27 10:15:26;;;;;;;0.73;0.40;;;18.50;47.10;;;;;;5974899;24;20216;-83
2023/03/27 10:17:57;;;;;;;1.33;0.40;;;18.50;46.90;;;;;;5997874;24;20160;-83
2023/03/27 10:20:23;;;;;;;0.63;0.57;;;18.50;47.00;;;;;;5927478;24;20179;-83
2023/03/27 10:23:00;;;;;;;0.30;0.30;;;18.50;46.00;;;;;;5998119;23;20173;-84
2023/03/27 10:25:38;;;;;;;0.38;0.38;;;18.60;46.60;;;;;;5943251;24;20152;-83
2023/03/27 10:28:18;;;;;;;0.85;0.40;;;18.60;46.20;;;;;;5920702;24;20160;-83
2023/03/27 10:31:07;;;;;;;0.65;0.40;;;18.50;46.30;;;;;;5886435;24;20191;-83
2023/03/27 10:33:45;;;;;;;1.23;0.30;;;18.60;46.30;;;;;;5865859;24;20165;-84
2023/03/27 10:36:19;;;;;;;0.43;0.35;;;18.60;46.30;;;;;;5845732;24;20154;-82
2023/03/27 10:39:08;;;;;;;0.95;0.40;;;18.60;46.80;;;;;;5868305;24;20189;-83
2023/03/27 10:41:50;;;;;;;0.20;0.20;;;18.60;46.90;;;;;;5845543;24;20159;-82
2023/03/27 10:45:05;;;;;;;0.90;0.75;;;18.50;46.70;;;;;;5841814;24;20178;-82
2023/03/27 10:47:54;;;;;;;0.40;0.40;;;18.60;46.20;;;;;;5846502;24;20159;-83
2023/03/27 10:50:29;;;;;;;0.60;0.30;;;18.60;46.20;;;;;;5879455;24;20209;-83
2023/03/27 10:53:25;;;;;;;0.40;0.30;;;18.60;46.40;;;;;;5838902;24;20155;-83
2023/03/27 10:56:10;;;;;;;0.57;0.40;;;18.50;46.20;;;;;;5911613;24;20153;-83
2023/03/27 10:59:13;;;;;;;0.30;0.30;;;18.70;46.20;;;;;;5882617;24;20183;-83
2023/03/27 11:01:41;;;;;;;0.52;0.40;;;18.60;46.60;;;;;;5856236;24;20166;-83
2023/03/27 11:04:23;;;;;;;0.63;0.32;;;18.60;46.40;;;;;;5862723;24;20176;-83
2023/03/27 11:06:51;;;;;;;0.40;0.40;;;18.50;46.30;;;;;;5885133;24;20158;-83
2023/03/27 11:09:26;;;;;;;0.50;0.40;;;18.60;46.30;;;;;;5862303;24;20169;-85
2023/03/27 11:11:57;;;;;;;0.60;0.30;;;18.60;46.10;;;;;;5863917;24;20168;-83
2023/03/27 11:14:34;;;;;;;0.40;0.32;;;18.60;46.10;;;;;;5884935;24;20162;-84
2023/03/27 11:17:02;;;;;;;0.30;0.30;;;18.60;46.60;;;;;;5863597;24;20201;-83
2023/03/27 11:19:45;;;;;;;1.25;0.30;;;18.60;45.80;;;;;;5844816;24;20351;-83
2023/03/27 11:22:14;;;;;;;0.40;0.40;;;18.60;46.20;;;;;;5837442;24;20242;-83
2023/03/27 11:24:52;;;;;;;0.20;0.20;;;18.50;45.90;;;;;;5858778;24;20163;-83
2023/03/27 11:27:37;;;;;;;0.50;0.40;;;18.60;45.90;;;;;;5879356;24;20213;-84
2023/03/27 11:30:30;;;;;;;0.40;0.40;;;18.60;45.60;;;;;;5984655;23;20146;-83
2023/03/27 11:33:15;;;;;;;0.55;0.40;;;18.70;45.60;;;;;;6053538;23;20166;-83
2023/03/27 11:35:56;;;;;;;0.52;0.40;;;18.60;45.70;;;;;;6002506;23;20157;-84
2023/03/27 11:38:26;;;;;;;0.50;0.50;;;18.60;46.00;;;;;;6048817;23;20257;-85
2023/03/27 11:41:14;;;;;;;0.80;0.35;;;18.60;45.80;;;;;;6048528;23;20138;-85
2023/03/27 11:43:55;;;;;;;0.30;0.30;;;18.60;46.20;;;;;;5995133;24;20152;-84
2023/03/27 11:47:00;;;;;;;0.68;0.43;;;18.60;45.90;;;;;;5947880;24;20159;-83
2023/03/27 11:53:44;;;;;;;0.20;0.20;;;18.60;46.10;;;;;;6045573;23;20258;-85
2023/03/27 11:57:08;;;;;;;0.30;0.20;;;18.60;46.40;;;;;;6047416;23;20141;-85
2023/03/27 12:00:04;;;;;;;0.30;0.30;;;18.50;46.60;;;;;;5971671;23;20301;-84
2023/03/27 12:03:11;;;;;;;0.75;0.30;;;18.50;46.40;;;;;;6026823;23;20154;-83
2023/03/27 12:06:06;;;;;;;0.28;0.28;;;18.60;46.00;;;;;;6057374;23;20230;-83
2023/03/27 12:09:33;;;;;;;0.30;0.30;;;18.60;46.30;;;;;;6015234;23;20240;-83
2023/03/27 12:12:25;;;;;;;0.20;0.20;;;18.50;46.40;;;;;;6009510;23;20162;-84
2023/03/27 12:15:29;;;;;;;0.38;0.30;;;18.60;46.30;;;;;;6089462;23;20160;-83
2023/03/27 12:18:09;;;;;;;0.30;0.25;;;18.60;46.20;;;;;;6114526;23;20220;-83
2023/03/27 12:20:51;;;;;;;0.38;0.38;;;18.50;45.60;;;;;;6115021;23;20144;-84
2023/03/27 12:23:56;;;;;;;0.30;0.30;;;18.60;45.70;;;;;;6015757;23;20221;-83
2023/03/27 12:26:41;;;;;;;0.38;0.38;;;18.60;45.70;;;;;;5997285;24;20492;-83
2023/03/27 12:29:43;;;;;;;0.30;0.30;;;18.60;45.70;;;;;;5941467;24;20279;-84
2023/03/27 12:32:36;;;;;;;0.22;0.22;;;18.60;45.70;;;;;;5941754;24;20156;-83
2023/03/27 12:35:20;;;;;;;0.43;0.30;;;18.60;46.30;;;;;;5941963;24;20680;-84
2023/03/27 12:38:20;;;;;;;0.45;0.30;;;18.60;46.00;;;;;;5920078;24;20181;-84
2023/03/27 12:40:57;;;;;;;0.65;0.50;;;18.60;45.50;;;;;;5897469;24;20271;-84
2023/03/27 12:43:28;;;;;;;0.20;0.20;;;18.50;45.60;;;;;;5941556;24;20236;-84
2023/03/27 12:46:11;;;;;;;0.32;0.32;;;18.60;46.00;;;;;;5942597;24;20161;-83
2023/03/27 12:49:00;;;;;;;0.30;0.28;;;18.60;46.00;;;;;;5941608;24;20167;-84
2023/03/27 12:51:47;;;;;;;0.30;0.30;;;18.60;45.70;;;;;;5939086;24;20200;-83
2023/03/27 12:54:30;;;;;;;0.30;0.30;;;18.60;45.80;;;;;;5955830;24;20160;-84
2023/03/27 12:57:04;;;;;;;0.55;0.30;;;18.60;45.80;;;;;;5947736;23;20154;-84
2023/03/27 13:00:16;;;;;;;0.30;0.30;;;18.60;45.20;;;;;;6018331;23;20192;-83
2023/03/27 13:03:24;;;;;;;0.40;0.30;;;18.60;45.60;;;;;;6065528;23;20176;-85
2023/03/27 13:06:39;;;;;;;0.30;0.30;;;18.60;45.90;;;;;;6088606;23;20241;-84
2023/03/27 13:09:34;;;;;;;0.38;0.20;;;18.60;45.60;;;;;;6109673;23;20235;-84
2023/03/27 13:12:35;;;;;;;0.30;0.30;;;18.60;45.60;;;;;;6085078;23;20173;-85
2023/03/27 13:15:13;;;;;;;0.40;0.40;;;18.60;45.50;;;;;;6110367;23;20163;-83
2023/03/27 13:18:05;;;;;;;0.38;0.30;;;18.50;45.50;;;;;;6060447;23;20152;-84
2023/03/27 13:20:55;;;;;;;0.20;0.20;;;18.60;46.00;;;;;;6105864;23;20172;-84
2023/03/27 13:23:45;;;;;;;0.32;0.30;;;18.50;45.80;;;;;;6104332;23;20148;-84
2023/03/27 13:26:45;;;;;;;0.50;0.30;;;18.50;46.10;;;;;;6103712;23;20558;-83
2023/03/27 13:29:22;;;;;;;1.23;0.20;;;18.50;45.50;;;;;;6068228;23;20153;-84
2023/03/27 13:32:29;;;;;;;0.30;0.30;;;18.60;45.20;;;;;;6042839;23;20159;-85
2023/03/27 13:35:25;;;;;;;1.10;0.47;;;18.60;45.50;;;;;;6084802;23;20159;-82
2023/03/27 13:38:48;;;;;;;2.05;0.30;;;18.60;46.30;;;;;;6064575;23;20137;-84
2023/03/27 13:42:07;;;;;;;0.20;0.20;;;18.60;45.00;;;;;;5975086;24;20259;-85
2023/03/27 13:45:45;;;;;;;0.20;0.20;;;18.60;45.50;;;;;;5949663;24;20139;-85
2023/03/27 13:48:42;;;;;;;0.38;0.30;;;18.50;45.50;;;;;;5981426;24;20215;-83
2023/03/27 13:51:44;;;;;;;1.45;0.28;;;18.50;45.50;;;;;;5980935;24;20176;-84
2023/03/27 13:54:45;;;;;;;0.22;0.20;;;18.50;45.80;;;;;;5960329;24;20175;-83